sensor_id;sensor_type;location;lat;lon;timestamp;temperature;humidity
42743;DHT22;28397;44.552;-0.848;2022-12-17T00:00:06;-3.50;99.90
42743;DHT22;28397;44.552;-0.848;2022-12-17T00:02:56;-3.30;99.90
42743;DHT22;28397;44.552;-0.848;2022-12-17T00:05:41;-3.20;99.90
42743;DHT22;28397;44.552;-0.848;2022-12-17T00:08:25;-3.40;99.90
42743;DHT22;28397;44.552;-0.848;2022-12-17T00:11:09;-3.40;99.90
42743;DHT22;28397;44.552;-0.848;2022-12-17T00:14:13;-3.30;99.90
42743;DHT22;28397;44.552;-0.848;2022-12-17T00:16:57;-3.60;99.90
42743;DHT22;28397;44.552;-0.848;2022-12-17T00:19:42;-3.40;99.90
42743;DHT22;28397;44.552;-0.848;2022-12-17T00:22:34;-3.50;99.90
42743;DHT22;28397;44.552;-0.848;2022-12-17T00:25:18;-3.40;99.90
42743;DHT22;28397;44.552;-0.848;2022-12-17T00:28:02;-3.50;99.90
42743;DHT22;28397;44.552;-0.848;2022-12-17T00:30:50;-3.60;99.90
42743;DHT22;28397;44.552;-0.848;2022-12-17T00:33:35;-3.70;99.90
42743;DHT22;28397;44.552;-0.848;2022-12-17T00:36:19;-3.60;99.90
42743;DHT22;28397;44.552;-0.848;2022-12-17T00:39:03;-3.60;99.90
42743;DHT22;28397;44.552;-0.848;2022-12-17T00:41:47;-3.80;99.90
42743;DHT22;28397;44.552;-0.848;2022-12-17T00:44:32;-3.80;99.90
42743;DHT22;28397;44.552;-0.848;2022-12-17T00:47:16;-3.90;99.90
42743;DHT22;28397;44.552;-0.848;2022-12-17T00:50:00;-3.80;99.90
42743;DHT22;28397;44.552;-0.848;2022-12-17T00:52:44;-3.80;99.90
42743;DHT22;28397;44.552;-0.848;2022-12-17T00:55:29;-3.80;99.90
42743;DHT22;28397;44.552;-0.848;2022-12-17T00:58:13;-3.60;99.90
42743;DHT22;28397;44.552;-0.848;2022-12-17T01:00:59;-3.70;99.90
42743;DHT22;28397;44.552;-0.848;2022-12-17T01:03:44;-3.80;99.90
42743;DHT22;28397;44.552;-0.848;2022-12-17T01:06:28;-3.90;99.90
42743;DHT22;28397;44.552;-0.848;2022-12-17T01:09:12;-4.10;99.90
42743;DHT22;28397;44.552;-0.848;2022-12-17T01:11:56;-4.10;99.90
42743;DHT22;28397;44.552;-0.848;2022-12-17T01:14:40;-3.90;99.90
42743;DHT22;28397;44.552;-0.848;2022-12-17T01:17:41;-3.90;99.90
42743;DHT22;28397;44.552;-0.848;2022-12-17T01:20:25;-3.80;99.90
42743;DHT22;28397;44.552;-0.848;2022-12-17T01:23:09;-3.80;99.90
42743;DHT22;28397;44.552;-0.848;2022-12-17T01:25:55;-3.80;99.90
42743;DHT22;28397;44.552;-0.848;2022-12-17T01:28:40;-3.80;99.90
42743;DHT22;28397;44.552;-0.848;2022-12-17T01:31:24;-3.90;99.90
42743;DHT22;28397;44.552;-0.848;2022-12-17T01:34:08;-3.90;99.90
42743;DHT22;28397;44.552;-0.848;2022-12-17T01:36:53;-3.90;99.90
42743;DHT22;28397;44.552;-0.848;2022-12-17T01:39:37;-4.10;99.90
42743;DHT22;28397;44.552;-0.848;2022-12-17T01:42:21;-4.10;99.90
42743;DHT22;28397;44.552;-0.848;2022-12-17T01:45:10;-4.10;99.90
42743;DHT22;28397;44.552;-0.848;2022-12-17T01:48:04;-4.10;99.90
42743;DHT22;28397;44.552;-0.848;2022-12-17T01:50:52;-4.10;99.90
42743;DHT22;28397;44.552;-0.848;2022-12-17T01:53:48;-4.10;99.90
42743;DHT22;28397;44.552;-0.848;2022-12-17T01:56:34;-4.20;99.90
42743;DHT22;28397;44.552;-0.848;2022-12-17T01:59:28;-4.30;99.90
42743;DHT22;28397;44.552;-0.848;2022-12-17T02:02:16;-4.40;99.90
42743;DHT22;28397;44.552;-0.848;2022-12-17T02:05:01;-4.30;99.90
42743;DHT22;28397;44.552;-0.848;2022-12-17T02:13:37;-4.00;99.90
42743;DHT22;28397;44.552;-0.848;2022-12-17T02:16:48;-4.10;99.90
42743;DHT22;28397;44.552;-0.848;2022-12-17T02:19:49;-4.20;99.90
42743;DHT22;28397;44.552;-0.848;2022-12-17T02:25:50;-4.20;99.90
42743;DHT22;28397;44.552;-0.848;2022-12-17T02:28:38;-4.30;99.90
42743;DHT22;28397;44.552;-0.848;2022-12-17T02:31:25;-4.50;99.90
42743;DHT22;28397;44.552;-0.848;2022-12-17T02:34:10;-4.40;99.90
42743;DHT22;28397;44.552;-0.848;2022-12-17T02:36:54;-4.50;99.90
42743;DHT22;28397;44.552;-0.848;2022-12-17T02:39:39;-4.50;99.90
42743;DHT22;28397;44.552;-0.848;2022-12-17T02:42:25;-4.60;99.90
42743;DHT22;28397;44.552;-0.848;2022-12-17T02:45:10;-4.60;99.90
42743;DHT22;28397;44.552;-0.848;2022-12-17T02:47:55;-4.60;99.90
42743;DHT22;28397;44.552;-0.848;2022-12-17T02:50:40;-4.40;99.90
42743;DHT22;28397;44.552;-0.848;2022-12-17T02:53:24;-4.40;99.90
42743;DHT22;28397;44.552;-0.848;2022-12-17T02:56:08;-4.30;99.90
42743;DHT22;28397;44.552;-0.848;2022-12-17T02:58:52;-4.10;99.90
42743;DHT22;28397;44.552;-0.848;2022-12-17T03:01:56;-4.40;99.90
42743;DHT22;28397;44.552;-0.848;2022-12-17T03:04:41;-4.40;99.90
42743;DHT22;28397;44.552;-0.848;2022-12-17T03:07:25;-4.40;99.90
42743;DHT22;28397;44.552;-0.848;2022-12-17T03:10:09;-4.00;99.90
42743;DHT22;28397;44.552;-0.848;2022-12-17T03:12:53;-4.10;99.90
42743;DHT22;28397;44.552;-0.848;2022-12-17T03:15:37;-3.90;99.90
42743;DHT22;28397;44.552;-0.848;2022-12-17T03:18:21;-3.90;99.90
42743;DHT22;28397;44.552;-0.848;2022-12-17T03:21:05;-3.80;99.90
42743;DHT22;28397;44.552;-0.848;2022-12-17T03:23:50;-4.00;99.90
42743;DHT22;28397;44.552;-0.848;2022-12-17T03:26:34;-4.30;99.90
42743;DHT22;28397;44.552;-0.848;2022-12-17T03:29:18;-4.50;99.90
42743;DHT22;28397;44.552;-0.848;2022-12-17T03:32:03;-4.50;99.90
42743;DHT22;28397;44.552;-0.848;2022-12-17T03:34:47;-4.60;99.90
42743;DHT22;28397;44.552;-0.848;2022-12-17T03:37:31;-4.70;99.90
42743;DHT22;28397;44.552;-0.848;2022-12-17T03:40:15;-4.60;99.90
42743;DHT22;28397;44.552;-0.848;2022-12-17T03:43:05;-4.50;99.90
42743;DHT22;28397;44.552;-0.848;2022-12-17T03:45:53;-4.30;99.90
42743;DHT22;28397;44.552;-0.848;2022-12-17T03:48:38;-4.20;99.90
42743;DHT22;28397;44.552;-0.848;2022-12-17T03:51:22;-4.10;99.90
42743;DHT22;28397;44.552;-0.848;2022-12-17T03:54:06;-4.00;99.90
42743;DHT22;28397;44.552;-0.848;2022-12-17T03:56:51;-3.90;99.90
42743;DHT22;28397;44.552;-0.848;2022-12-17T03:59:35;-3.90;99.90
42743;DHT22;28397;44.552;-0.848;2022-12-17T04:02:19;-4.00;99.90
42743;DHT22;28397;44.552;-0.848;2022-12-17T04:05:23;-4.30;99.90
42743;DHT22;28397;44.552;-0.848;2022-12-17T04:08:08;-4.60;99.90
42743;DHT22;28397;44.552;-0.848;2022-12-17T04:10:52;-4.60;99.90
42743;DHT22;28397;44.552;-0.848;2022-12-17T04:13:36;-4.80;99.90
42743;DHT22;28397;44.552;-0.848;2022-12-17T04:16:21;-4.80;99.90
42743;DHT22;28397;44.552;-0.848;2022-12-17T04:19:05;-4.60;99.90
42743;DHT22;28397;44.552;-0.848;2022-12-17T04:21:49;-4.50;99.90
42743;DHT22;28397;44.552;-0.848;2022-12-17T04:24:33;-4.40;99.90
42743;DHT22;28397;44.552;-0.848;2022-12-17T04:27:17;-4.40;99.90
42743;DHT22;28397;44.552;-0.848;2022-12-17T04:30:02;-4.70;99.90
42743;DHT22;28397;44.552;-0.848;2022-12-17T04:32:46;-4.90;99.90
42743;DHT22;28397;44.552;-0.848;2022-12-17T04:35:31;-4.80;99.90
42743;DHT22;28397;44.552;-0.848;2022-12-17T04:38:15;-5.00;99.90
42743;DHT22;28397;44.552;-0.848;2022-12-17T04:40:59;-4.90;99.90
42743;DHT22;28397;44.552;-0.848;2022-12-17T04:43:43;-5.20;99.90
42743;DHT22;28397;44.552;-0.848;2022-12-17T04:46:27;-5.20;99.90
42743;DHT22;28397;44.552;-0.848;2022-12-17T04:49:11;-5.30;99.90
42743;DHT22;28397;44.552;-0.848;2022-12-17T04:51:55;-5.30;99.90
42743;DHT22;28397;44.552;-0.848;2022-12-17T04:54:40;-5.40;99.90
42743;DHT22;28397;44.552;-0.848;2022-12-17T04:57:24;-5.40;99.90
42743;DHT22;28397;44.552;-0.848;2022-12-17T05:00:08;-5.10;99.90
42743;DHT22;28397;44.552;-0.848;2022-12-17T05:02:52;-5.10;99.90
42743;DHT22;28397;44.552;-0.848;2022-12-17T05:05:36;-4.90;99.90
42743;DHT22;28397;44.552;-0.848;2022-12-17T05:08:21;-5.10;99.90
42743;DHT22;28397;44.552;-0.848;2022-12-17T05:11:05;-4.90;99.90
42743;DHT22;28397;44.552;-0.848;2022-12-17T05:13:49;-4.90;99.90
42743;DHT22;28397;44.552;-0.848;2022-12-17T05:16:33;-5.10;99.90
42743;DHT22;28397;44.552;-0.848;2022-12-17T05:19:17;-5.10;99.90
42743;DHT22;28397;44.552;-0.848;2022-12-17T05:22:01;-4.60;99.90
42743;DHT22;28397;44.552;-0.848;2022-12-17T05:24:45;-4.40;99.90
42743;DHT22;28397;44.552;-0.848;2022-12-17T05:27:29;-4.50;99.90
42743;DHT22;28397;44.552;-0.848;2022-12-17T05:30:13;-4.60;99.90
42743;DHT22;28397;44.552;-0.848;2022-12-17T05:33:02;-4.50;99.90
42743;DHT22;28397;44.552;-0.848;2022-12-17T05:35:47;-4.20;99.90
42743;DHT22;28397;44.552;-0.848;2022-12-17T05:38:31;-4.20;99.90
42743;DHT22;28397;44.552;-0.848;2022-12-17T05:41:15;-4.30;99.90
42743;DHT22;28397;44.552;-0.848;2022-12-17T05:43:59;-4.50;99.90
42743;DHT22;28397;44.552;-0.848;2022-12-17T05:46:43;-4.90;99.90
42743;DHT22;28397;44.552;-0.848;2022-12-17T05:49:27;-5.00;99.90
42743;DHT22;28397;44.552;-0.848;2022-12-17T05:52:11;-5.00;99.90
42743;DHT22;28397;44.552;-0.848;2022-12-17T05:54:56;-5.10;99.90
42743;DHT22;28397;44.552;-0.848;2022-12-17T05:57:40;-5.40;99.90
42743;DHT22;28397;44.552;-0.848;2022-12-17T06:00:31;-5.10;99.90
42743;DHT22;28397;44.552;-0.848;2022-12-17T06:03:15;-5.10;99.90
42743;DHT22;28397;44.552;-0.848;2022-12-17T06:05:59;-5.30;99.90
42743;DHT22;28397;44.552;-0.848;2022-12-17T06:08:44;-5.30;99.90
42743;DHT22;28397;44.552;-0.848;2022-12-17T06:11:28;-5.40;99.90
42743;DHT22;28397;44.552;-0.848;2022-12-17T06:14:12;-5.40;99.90
42743;DHT22;28397;44.552;-0.848;2022-12-17T06:17:07;-5.50;99.90
42743;DHT22;28397;44.552;-0.848;2022-12-17T06:19:51;-5.60;99.90
42743;DHT22;28397;44.552;-0.848;2022-12-17T06:22:36;-5.60;99.90
42743;DHT22;28397;44.552;-0.848;2022-12-17T06:25:20;-5.60;99.90
42743;DHT22;28397;44.552;-0.848;2022-12-17T06:28:04;-5.50;99.90
42743;DHT22;28397;44.552;-0.848;2022-12-17T06:30:52;-5.50;99.90
42743;DHT22;28397;44.552;-0.848;2022-12-17T06:33:37;-5.50;99.90
42743;DHT22;28397;44.552;-0.848;2022-12-17T06:36:22;-5.60;99.90
42743;DHT22;28397;44.552;-0.848;2022-12-17T06:39:06;-5.60;99.90
42743;DHT22;28397;44.552;-0.848;2022-12-17T06:41:51;-5.80;99.90
42743;DHT22;28397;44.552;-0.848;2022-12-17T06:44:35;-5.70;99.90
42743;DHT22;28397;44.552;-0.848;2022-12-17T06:47:19;-5.50;99.90
42743;DHT22;28397;44.552;-0.848;2022-12-17T06:50:04;-5.40;99.90
42743;DHT22;28397;44.552;-0.848;2022-12-17T06:53:00;-5.30;99.90
42743;DHT22;28397;44.552;-0.848;2022-12-17T06:55:45;-5.20;99.90
42743;DHT22;28397;44.552;-0.848;2022-12-17T06:58:29;-5.50;99.90
42743;DHT22;28397;44.552;-0.848;2022-12-17T07:01:13;-5.60;99.90
42743;DHT22;28397;44.552;-0.848;2022-12-17T07:03:57;-5.60;99.90
42743;DHT22;28397;44.552;-0.848;2022-12-17T07:06:41;-5.60;99.90
42743;DHT22;28397;44.552;-0.848;2022-12-17T07:09:45;-5.60;99.90
42743;DHT22;28397;44.552;-0.848;2022-12-17T07:12:29;-5.60;99.90
42743;DHT22;28397;44.552;-0.848;2022-12-17T07:15:13;-5.50;99.90
42743;DHT22;28397;44.552;-0.848;2022-12-17T07:17:59;-5.50;99.90
42743;DHT22;28397;44.552;-0.848;2022-12-17T07:20:45;-5.50;99.90
42743;DHT22;28397;44.552;-0.848;2022-12-17T07:23:29;-5.50;99.90
42743;DHT22;28397;44.552;-0.848;2022-12-17T07:26:13;-5.50;99.90
42743;DHT22;28397;44.552;-0.848;2022-12-17T07:28:58;-5.40;99.90
42743;DHT22;28397;44.552;-0.848;2022-12-17T07:31:42;-5.20;99.90
42743;DHT22;28397;44.552;-0.848;2022-12-17T07:34:27;-5.20;99.90
42743;DHT22;28397;44.552;-0.848;2022-12-17T07:37:11;-5.20;99.90
42743;DHT22;28397;44.552;-0.848;2022-12-17T07:39:56;-4.80;99.90
42743;DHT22;28397;44.552;-0.848;2022-12-17T07:42:40;-4.80;99.90
42743;DHT22;28397;44.552;-0.848;2022-12-17T07:45:24;-4.90;99.90
42743;DHT22;28397;44.552;-0.848;2022-12-17T07:48:09;-4.70;99.90
42743;DHT22;28397;44.552;-0.848;2022-12-17T07:50:53;-5.00;99.90
42743;DHT22;28397;44.552;-0.848;2022-12-17T07:53:37;-5.10;99.90
42743;DHT22;28397;44.552;-0.848;2022-12-17T07:56:21;-5.00;99.90
42743;DHT22;28397;44.552;-0.848;2022-12-17T07:59:06;-5.00;99.90
42743;DHT22;28397;44.552;-0.848;2022-12-17T08:01:50;-5.00;99.90
42743;DHT22;28397;44.552;-0.848;2022-12-17T08:04:34;-4.80;99.90
42743;DHT22;28397;44.552;-0.848;2022-12-17T08:07:18;-3.90;99.90
42743;DHT22;28397;44.552;-0.848;2022-12-17T08:10:41;-0.30;99.90
42743;DHT22;28397;44.552;-0.848;2022-12-17T08:13:25;-2.30;99.90
42743;DHT22;28397;44.552;-0.848;2022-12-17T08:16:10;-3.10;99.90
42743;DHT22;28397;44.552;-0.848;2022-12-17T08:18:54;-2.60;99.90
42743;DHT22;28397;44.552;-0.848;2022-12-17T08:21:38;-1.80;99.90
42743;DHT22;28397;44.552;-0.848;2022-12-17T08:24:22;-0.80;99.90
42743;DHT22;28397;44.552;-0.848;2022-12-17T08:27:06;0.60;99.90
42743;DHT22;28397;44.552;-0.848;2022-12-17T08:29:50;2.50;99.90
42743;DHT22;28397;44.552;-0.848;2022-12-17T08:32:34;4.30;99.90
42743;DHT22;28397;44.552;-0.848;2022-12-17T08:35:18;4.30;99.90
42743;DHT22;28397;44.552;-0.848;2022-12-17T08:38:04;5.00;99.90
42743;DHT22;28397;44.552;-0.848;2022-12-17T08:40:48;5.50;99.90
42743;DHT22;28397;44.552;-0.848;2022-12-17T08:43:32;7.40;99.90
42743;DHT22;28397;44.552;-0.848;2022-12-17T08:46:16;7.10;99.90
42743;DHT22;28397;44.552;-0.848;2022-12-17T08:49:01;6.30;99.90
42743;DHT22;28397;44.552;-0.848;2022-12-17T08:51:45;6.20;99.90
42743;DHT22;28397;44.552;-0.848;2022-12-17T08:54:29;7.10;99.90
42743;DHT22;28397;44.552;-0.848;2022-12-17T08:57:13;7.40;99.90
42743;DHT22;28397;44.552;-0.848;2022-12-17T08:59:57;5.80;99.90
42743;DHT22;28397;44.552;-0.848;2022-12-17T09:02:41;7.20;99.90
42743;DHT22;28397;44.552;-0.848;2022-12-17T09:05:25;6.60;99.90
42743;DHT22;28397;44.552;-0.848;2022-12-17T09:08:09;6.30;99.90
42743;DHT22;28397;44.552;-0.848;2022-12-17T09:10:53;7.60;99.90
42743;DHT22;28397;44.552;-0.848;2022-12-17T09:13:37;6.90;99.90
42743;DHT22;28397;44.552;-0.848;2022-12-17T09:16:22;8.80;99.90
42743;DHT22;28397;44.552;-0.848;2022-12-17T09:19:08;8.20;99.90
42743;DHT22;28397;44.552;-0.848;2022-12-17T09:22:11;8.00;99.90
42743;DHT22;28397;44.552;-0.848;2022-12-17T09:24:56;7.60;99.90
42743;DHT22;28397;44.552;-0.848;2022-12-17T09:27:40;10.40;99.90
42743;DHT22;28397;44.552;-0.848;2022-12-17T09:30:24;11.10;99.90
42743;DHT22;28397;44.552;-0.848;2022-12-17T09:33:16;9.90;99.90
42743;DHT22;28397;44.552;-0.848;2022-12-17T09:36:04;11.60;99.90
42743;DHT22;28397;44.552;-0.848;2022-12-17T09:38:49;11.10;99.90
42743;DHT22;28397;44.552;-0.848;2022-12-17T09:41:53;11.20;99.90
42743;DHT22;28397;44.552;-0.848;2022-12-17T09:47:53;7.70;99.90
42743;DHT22;28397;44.552;-0.848;2022-12-17T09:50:40;7.60;99.90
42743;DHT22;28397;44.552;-0.848;2022-12-17T09:56:20;7.30;99.90
42743;DHT22;28397;44.552;-0.848;2022-12-17T09:59:04;6.30;99.90
42743;DHT22;28397;44.552;-0.848;2022-12-17T10:01:48;6.60;99.90
42743;DHT22;28397;44.552;-0.848;2022-12-17T10:04:36;7.70;99.90
42743;DHT22;28397;44.552;-0.848;2022-12-17T10:07:27;9.10;99.90
42743;DHT22;28397;44.552;-0.848;2022-12-17T10:10:20;7.70;99.90
42743;DHT22;28397;44.552;-0.848;2022-12-17T10:13:21;8.50;99.90
42743;DHT22;28397;44.552;-0.848;2022-12-17T10:16:31;9.80;99.90
42743;DHT22;28397;44.552;-0.848;2022-12-17T10:19:29;8.80;99.90
42743;DHT22;28397;44.552;-0.848;2022-12-17T10:22:16;9.50;99.90
42743;DHT22;28397;44.552;-0.848;2022-12-17T10:28:00;8.90;99.90
42743;DHT22;28397;44.552;-0.848;2022-12-17T10:30:46;9.30;99.90
42743;DHT22;28397;44.552;-0.848;2022-12-17T10:33:37;10.20;99.90
42743;DHT22;28397;44.552;-0.848;2022-12-17T10:36:23;9.10;99.90
42743;DHT22;28397;44.552;-0.848;2022-12-17T10:39:24;8.80;99.90
42743;DHT22;28397;44.552;-0.848;2022-12-17T10:45:32;7.80;99.90
42743;DHT22;28397;44.552;-0.848;2022-12-17T10:48:27;8.10;99.90
42743;DHT22;28397;44.552;-0.848;2022-12-17T10:51:35;8.40;99.90
42743;DHT22;28397;44.552;-0.848;2022-12-17T10:54:30;8.60;99.90
42743;DHT22;28397;44.552;-0.848;2022-12-17T10:57:31;8.10;99.90
42743;DHT22;28397;44.552;-0.848;2022-12-17T11:03:01;9.00;99.90
42743;DHT22;28397;44.552;-0.848;2022-12-17T11:05:47;9.00;99.90
42743;DHT22;28397;44.552;-0.848;2022-12-17T11:08:32;8.80;99.90
42743;DHT22;28397;44.552;-0.848;2022-12-17T11:11:17;8.30;99.90
42743;DHT22;28397;44.552;-0.848;2022-12-17T11:14:03;7.60;99.90
42743;DHT22;28397;44.552;-0.848;2022-12-17T11:16:52;8.30;99.90
42743;DHT22;28397;44.552;-0.848;2022-12-17T11:19:54;9.00;99.90
42743;DHT22;28397;44.552;-0.848;2022-12-17T11:22:58;8.90;99.90
42743;DHT22;28397;44.552;-0.848;2022-12-17T11:28:34;8.80;99.90
42743;DHT22;28397;44.552;-0.848;2022-12-17T11:38:33;8.20;99.90
42743;DHT22;28397;44.552;-0.848;2022-12-17T11:41:07;8.00;99.90
42743;DHT22;28397;44.552;-0.848;2022-12-17T11:47:01;9.20;99.90
42743;DHT22;28397;44.552;-0.848;2022-12-17T11:50:12;9.30;99.90
42743;DHT22;28397;44.552;-0.848;2022-12-17T11:56:29;10.00;99.90
42743;DHT22;28397;44.552;-0.848;2022-12-17T11:59:28;9.40;99.90
42743;DHT22;28397;44.552;-0.848;2022-12-17T12:05:36;8.80;99.90
42743;DHT22;28397;44.552;-0.848;2022-12-17T12:08:29;8.50;99.90
42743;DHT22;28397;44.552;-0.848;2022-12-17T12:11:41;9.00;99.90
42743;DHT22;28397;44.552;-0.848;2022-12-17T12:25:05;7.40;99.90
42743;DHT22;28397;44.552;-0.848;2022-12-17T12:31:45;8.60;99.90
42743;DHT22;28397;44.552;-0.848;2022-12-17T12:34:34;9.20;99.90
42743;DHT22;28397;44.552;-0.848;2022-12-17T12:37:20;9.60;99.90
42743;DHT22;28397;44.552;-0.848;2022-12-17T12:40:14;8.60;99.90
42743;DHT22;28397;44.552;-0.848;2022-12-17T12:43:24;8.40;99.90
42743;DHT22;28397;44.552;-0.848;2022-12-17T12:46:16;8.80;99.90
42743;DHT22;28397;44.552;-0.848;2022-12-17T12:49:25;9.00;99.90
42743;DHT22;28397;44.552;-0.848;2022-12-17T12:52:17;8.60;99.90
42743;DHT22;28397;44.552;-0.848;2022-12-17T12:55:02;8.90;99.90
42743;DHT22;28397;44.552;-0.848;2022-12-17T12:58:01;8.60;99.90
42743;DHT22;28397;44.552;-0.848;2022-12-17T13:06:40;8.10;99.90
42743;DHT22;28397;44.552;-0.848;2022-12-17T13:14:54;7.90;99.90
42743;DHT22;28397;44.552;-0.848;2022-12-17T13:17:44;8.00;99.90
42743;DHT22;28397;44.552;-0.848;2022-12-17T13:20:28;8.20;99.90
42743;DHT22;28397;44.552;-0.848;2022-12-17T13:26:15;8.50;99.90
42743;DHT22;28397;44.552;-0.848;2022-12-17T13:28:47;8.60;99.90
42743;DHT22;28397;44.552;-0.848;2022-12-17T13:31:22;8.40;99.90
42743;DHT22;28397;44.552;-0.848;2022-12-17T13:41:35;8.50;99.90
42743;DHT22;28397;44.552;-0.848;2022-12-17T13:44:23;8.40;99.90
42743;DHT22;28397;44.552;-0.848;2022-12-17T13:46:52;8.60;99.90
42743;DHT22;28397;44.552;-0.848;2022-12-17T13:54:30;8.60;99.90
42743;DHT22;28397;44.552;-0.848;2022-12-17T13:57:12;8.70;99.90
42743;DHT22;28397;44.552;-0.848;2022-12-17T13:59:38;8.50;99.90
42743;DHT22;28397;44.552;-0.848;2022-12-17T14:02:04;8.50;99.90
42743;DHT22;28397;44.552;-0.848;2022-12-17T14:04:31;8.40;99.90
42743;DHT22;28397;44.552;-0.848;2022-12-17T14:07:03;8.60;99.90
42743;DHT22;28397;44.552;-0.848;2022-12-17T14:09:36;8.50;99.90
42743;DHT22;28397;44.552;-0.848;2022-12-17T14:12:05;8.60;99.90
42743;DHT22;28397;44.552;-0.848;2022-12-17T14:14:51;8.50;99.90
42743;DHT22;28397;44.552;-0.848;2022-12-17T14:17:41;8.60;99.90
42743;DHT22;28397;44.552;-0.848;2022-12-17T14:20:34;8.60;99.90
42743;DHT22;28397;44.552;-0.848;2022-12-17T14:25:32;8.30;99.90
42743;DHT22;28397;44.552;-0.848;2022-12-17T14:28:01;8.40;99.90
42743;DHT22;28397;44.552;-0.848;2022-12-17T14:30:38;8.40;99.90
42743;DHT22;28397;44.552;-0.848;2022-12-17T14:33:27;8.50;99.90
42743;DHT22;28397;44.552;-0.848;2022-12-17T14:35:54;8.50;99.90
42743;DHT22;28397;44.552;-0.848;2022-12-17T14:38:21;8.40;99.90
42743;DHT22;28397;44.552;-0.848;2022-12-17T14:40:47;8.40;99.90
42743;DHT22;28397;44.552;-0.848;2022-12-17T14:43:13;8.40;99.90
42743;DHT22;28397;44.552;-0.848;2022-12-17T14:45:52;8.50;99.90
42743;DHT22;28397;44.552;-0.848;2022-12-17T14:48:38;8.50;99.90
42743;DHT22;28397;44.552;-0.848;2022-12-17T14:51:23;8.50;99.90
42743;DHT22;28397;44.552;-0.848;2022-12-17T14:53:49;8.50;99.90
42743;DHT22;28397;44.552;-0.848;2022-12-17T14:56:22;8.50;99.90
42743;DHT22;28397;44.552;-0.848;2022-12-17T14:58:47;8.60;99.90
42743;DHT22;28397;44.552;-0.848;2022-12-17T15:01:14;8.60;99.90
42743;DHT22;28397;44.552;-0.848;2022-12-17T15:03:42;8.60;99.90
42743;DHT22;28397;44.552;-0.848;2022-12-17T15:06:15;8.70;99.90
42743;DHT22;28397;44.552;-0.848;2022-12-17T15:08:44;8.50;99.90
42743;DHT22;28397;44.552;-0.848;2022-12-17T15:11:12;8.40;99.90
42743;DHT22;28397;44.552;-0.848;2022-12-17T15:13:38;8.40;99.90
42743;DHT22;28397;44.552;-0.848;2022-12-17T15:16:04;8.50;99.90
42743;DHT22;28397;44.552;-0.848;2022-12-17T15:18:30;8.40;99.90
42743;DHT22;28397;44.552;-0.848;2022-12-17T15:20:56;8.40;99.90
42743;DHT22;28397;44.552;-0.848;2022-12-17T15:23:22;8.30;99.90
42743;DHT22;28397;44.552;-0.848;2022-12-17T15:25:50;8.30;99.90
42743;DHT22;28397;44.552;-0.848;2022-12-17T15:28:17;8.30;99.90
42743;DHT22;28397;44.552;-0.848;2022-12-17T15:30:43;8.30;99.90
42743;DHT22;28397;44.552;-0.848;2022-12-17T15:33:10;8.20;99.90
42743;DHT22;28397;44.552;-0.848;2022-12-17T15:35:37;8.20;99.90
42743;DHT22;28397;44.552;-0.848;2022-12-17T15:38:04;8.10;99.90
42743;DHT22;28397;44.552;-0.848;2022-12-17T15:40:30;8.00;99.90
42743;DHT22;28397;44.552;-0.848;2022-12-17T15:42:56;8.00;99.90
42743;DHT22;28397;44.552;-0.848;2022-12-17T15:45:40;8.00;99.90
42743;DHT22;28397;44.552;-0.848;2022-12-17T15:48:07;8.10;99.90
42743;DHT22;28397;44.552;-0.848;2022-12-17T15:50:33;8.00;99.90
42743;DHT22;28397;44.552;-0.848;2022-12-17T15:52:59;7.80;99.90
42743;DHT22;28397;44.552;-0.848;2022-12-17T15:55:25;7.70;99.90
42743;DHT22;28397;44.552;-0.848;2022-12-17T15:57:51;7.50;99.90
42743;DHT22;28397;44.552;-0.848;2022-12-17T16:00:16;7.50;99.90
42743;DHT22;28397;44.552;-0.848;2022-12-17T16:02:42;7.40;99.90
42743;DHT22;28397;44.552;-0.848;2022-12-17T16:05:08;7.20;99.90
42743;DHT22;28397;44.552;-0.848;2022-12-17T16:07:34;7.10;99.90
42743;DHT22;28397;44.552;-0.848;2022-12-17T16:10:03;6.70;99.90
42743;DHT22;28397;44.552;-0.848;2022-12-17T16:12:28;6.40;99.90
42743;DHT22;28397;44.552;-0.848;2022-12-17T16:14:54;6.20;99.90
42743;DHT22;28397;44.552;-0.848;2022-12-17T16:17:20;6.20;99.90
42743;DHT22;28397;44.552;-0.848;2022-12-17T16:19:45;6.10;99.90
42743;DHT22;28397;44.552;-0.848;2022-12-17T16:22:11;6.00;99.90
42743;DHT22;28397;44.552;-0.848;2022-12-17T16:24:37;5.80;99.90
42743;DHT22;28397;44.552;-0.848;2022-12-17T16:27:03;5.60;99.90
42743;DHT22;28397;44.552;-0.848;2022-12-17T16:29:28;5.60;99.90
42743;DHT22;28397;44.552;-0.848;2022-12-17T16:31:54;5.60;99.90
42743;DHT22;28397;44.552;-0.848;2022-12-17T16:34:20;5.30;99.90
42743;DHT22;28397;44.552;-0.848;2022-12-17T16:36:45;5.10;99.90
42743;DHT22;28397;44.552;-0.848;2022-12-17T16:39:16;5.00;99.90
42743;DHT22;28397;44.552;-0.848;2022-12-17T16:41:43;4.80;99.90
42743;DHT22;28397;44.552;-0.848;2022-12-17T16:44:08;4.70;99.90
42743;DHT22;28397;44.552;-0.848;2022-12-17T16:46:36;4.60;99.90
42743;DHT22;28397;44.552;-0.848;2022-12-17T16:49:15;4.60;99.90
42743;DHT22;28397;44.552;-0.848;2022-12-17T16:51:43;4.40;99.90
42743;DHT22;28397;44.552;-0.848;2022-12-17T16:54:14;4.20;99.90
42743;DHT22;28397;44.552;-0.848;2022-12-17T16:56:41;4.20;99.90
42743;DHT22;28397;44.552;-0.848;2022-12-17T16:59:08;4.10;99.90
42743;DHT22;28397;44.552;-0.848;2022-12-17T17:01:35;3.90;99.90
42743;DHT22;28397;44.552;-0.848;2022-12-17T17:04:03;3.70;99.90
42743;DHT22;28397;44.552;-0.848;2022-12-17T17:06:29;3.70;99.90
42743;DHT22;28397;44.552;-0.848;2022-12-17T17:08:54;3.80;99.90
42743;DHT22;28397;44.552;-0.848;2022-12-17T17:11:23;3.80;99.90
42743;DHT22;28397;44.552;-0.848;2022-12-17T17:13:53;3.80;99.90
42743;DHT22;28397;44.552;-0.848;2022-12-17T17:16:21;3.60;99.90
42743;DHT22;28397;44.552;-0.848;2022-12-17T17:18:51;3.60;99.90
42743;DHT22;28397;44.552;-0.848;2022-12-17T17:21:25;3.60;99.90
42743;DHT22;28397;44.552;-0.848;2022-12-17T17:23:55;3.50;99.90
42743;DHT22;28397;44.552;-0.848;2022-12-17T17:26:21;3.30;99.90
42743;DHT22;28397;44.552;-0.848;2022-12-17T17:28:47;3.40;99.90
42743;DHT22;28397;44.552;-0.848;2022-12-17T17:31:15;3.30;99.90
42743;DHT22;28397;44.552;-0.848;2022-12-17T17:33:44;3.20;99.90
42743;DHT22;28397;44.552;-0.848;2022-12-17T17:36:22;3.40;99.90
42743;DHT22;28397;44.552;-0.848;2022-12-17T17:38:49;3.40;99.90
42743;DHT22;28397;44.552;-0.848;2022-12-17T17:41:18;3.30;99.90
42743;DHT22;28397;44.552;-0.848;2022-12-17T17:43:45;3.20;99.90
42743;DHT22;28397;44.552;-0.848;2022-12-17T17:46:16;3.10;99.90
42743;DHT22;28397;44.552;-0.848;2022-12-17T17:48:44;3.00;99.90
42743;DHT22;28397;44.552;-0.848;2022-12-17T17:51:15;2.90;99.90
42743;DHT22;28397;44.552;-0.848;2022-12-17T17:53:43;2.60;99.90
42743;DHT22;28397;44.552;-0.848;2022-12-17T17:56:12;2.50;99.90
42743;DHT22;28397;44.552;-0.848;2022-12-17T17:58:47;2.50;99.90
42743;DHT22;28397;44.552;-0.848;2022-12-17T18:01:18;2.40;99.90
42743;DHT22;28397;44.552;-0.848;2022-12-17T18:03:44;2.40;99.90
42743;DHT22;28397;44.552;-0.848;2022-12-17T18:06:11;2.30;99.90
42743;DHT22;28397;44.552;-0.848;2022-12-17T18:08:38;2.30;99.90
42743;DHT22;28397;44.552;-0.848;2022-12-17T18:11:06;2.30;99.90
42743;DHT22;28397;44.552;-0.848;2022-12-17T18:13:33;2.30;99.90
42743;DHT22;28397;44.552;-0.848;2022-12-17T18:16:18;2.10;99.90
42743;DHT22;28397;44.552;-0.848;2022-12-17T18:18:44;2.30;99.90
42743;DHT22;28397;44.552;-0.848;2022-12-17T18:21:13;2.50;99.90